Time;durP1;ratioP1;P1;durP2;ratioP2;P2;SDS_P1;SDS_P2;PMS_P1;PMS_P2;Temp;Humidity;BMP_temperature;BMP_pressure;BME280_temperature;BME280_humidity;BME280_pressure;Samples;Min_cycle;Max_cycle;Signal;HPM_P1;HPM_P2
2022/02/04 00:08:04;;;;;;;55.87;27.17;;;;;;;;;;5047534;28;20189;-66
2022/02/04 00:23:51;;;;;;;53.77;26.63;;;;;;;;;;5048122;28;20221;-66
2022/02/04 00:26:23;;;;;;;51.43;26.57;;;;;;;;;;5042595;28;20599;-66
2022/02/04 00:31:26;;;;;;;50.93;25.67;;;;;;;;;;5047201;28;20216;-66
2022/02/04 00:33:56;;;;;;;49.27;25.47;;;;;;;;;;5042254;28;20181;-66
2022/02/04 00:38:52;;;;;;;49.83;26.37;;;;;;;;;;5045807;28;20232;-67
2022/02/04 00:41:21;;;;;;;51.27;26.93;;;;;;;;;;5046428;28;20201;-67
2022/02/04 00:43:49;;;;;;;53.00;27.40;;;;;;;;;;5043017;28;20216;-67
2022/02/04 00:46:20;;;;;;;48.00;25.70;;;;;;;;;;5047041;28;20631;-66
2022/02/04 00:56:38;;;;;;;50.33;26.27;;;;;;;;;;5046940;28;20279;-66
2022/02/04 01:26:12;;;;;;;48.47;25.07;;;;;;;;;;5043471;28;20258;-66
2022/02/04 01:28:40;;;;;;;53.83;26.63;;;;;;;;;;5042560;28;20197;-66
2022/02/04 01:31:06;;;;;;;51.83;26.50;;;;;;;;;;5042712;28;20297;-67
2022/02/04 01:33:33;;;;;;;48.33;24.27;;;;;;;;;;5049616;28;20602;-67
2022/02/04 01:35:58;;;;;;;49.33;26.10;;;;;;;;;;5046925;28;20545;-67
2022/02/04 01:38:26;;;;;;;49.77;25.07;;;;;;;;;;5041953;28;20194;-67
2022/02/04 01:40:52;;;;;;;50.07;24.77;;;;;;;;;;5046081;28;20189;-67
2022/02/04 01:43:21;;;;;;;46.63;24.00;;;;;;;;;;5040320;28;20719;-66
2022/02/04 01:45:52;;;;;;;50.37;26.40;;;;;;;;;;5042111;28;20203;-66
2022/02/04 01:48:18;;;;;;;52.30;25.43;;;;;;;;;;5041299;28;20235;-66
2022/02/04 01:50:46;;;;;;;51.00;25.03;;;;;;;;;;5044930;28;20197;-66
2022/02/04 01:53:12;;;;;;;48.27;24.20;;;;;;;;;;5039762;28;20702;-66
2022/02/04 01:55:41;;;;;;;48.03;25.80;;;;;;;;;;5042613;28;20189;-66
2022/02/04 01:58:06;;;;;;;46.33;25.20;;;;;;;;;;5041874;28;20217;-65
2022/02/04 02:00:31;;;;;;;48.33;24.20;;;;;;;;;;5038420;28;20696;-66
2022/02/04 02:02:57;;;;;;;43.10;23.73;;;;;;;;;;5043151;28;20668;-66
2022/02/04 02:05:22;;;;;;;50.13;24.47;;;;;;;;;;5044898;28;20279;-66
2022/02/04 02:07:48;;;;;;;48.77;24.53;;;;;;;;;;5043477;28;20181;-66
2022/02/04 02:10:19;;;;;;;47.93;26.07;;;;;;;;;;5041342;28;20199;-66
2022/02/04 02:34:49;;;;;;;45.57;23.30;;;;;;;;;;5042990;28;20730;-66
2022/02/04 02:47:44;;;;;;;40.37;22.37;;;;;;;;;;5044489;28;20538;-67
2022/02/04 02:56:15;;;;;;;42.20;22.80;;;;;;;;;;5040607;28;20582;-67
2022/02/04 02:58:37;;;;;;;43.07;23.47;;;;;;;;;;5042245;28;20190;-66
2022/02/04 03:01:03;;;;;;;42.17;24.13;;;;;;;;;;5038567;28;20251;-66
2022/02/04 03:03:32;;;;;;;44.03;23.63;;;;;;;;;;5047730;28;20574;-66
2022/02/04 03:05:57;;;;;;;46.90;24.07;;;;;;;;;;5041499;28;20227;-66
2022/02/04 03:08:23;;;;;;;44.70;24.77;;;;;;;;;;5044745;28;20608;-66
2022/02/04 03:10:50;;;;;;;48.53;24.37;;;;;;;;;;5042558;28;20197;-66
2022/02/04 03:13:16;;;;;;;43.20;22.83;;;;;;;;;;5044947;28;20177;-66
2022/02/04 03:15:41;;;;;;;43.30;23.33;;;;;;;;;;5045889;28;20208;-66
2022/02/04 03:18:18;;;;;;;45.67;22.93;;;;;;;;;;5049441;28;20486;-66
2022/02/04 03:20:48;;;;;;;40.70;22.83;;;;;;;;;;5042418;28;20197;-66
2022/02/04 03:23:13;;;;;;;41.67;23.33;;;;;;;;;;5041142;28;20210;-65
2022/02/04 03:25:44;;;;;;;42.63;23.30;;;;;;;;;;5042038;28;20547;-65
2022/02/04 03:28:14;;;;;;;40.83;23.63;;;;;;;;;;5042045;28;20185;-65
2022/02/04 03:30:41;;;;;;;39.23;21.53;;;;;;;;;;5038902;28;20214;-66
2022/02/04 03:33:08;;;;;;;43.33;23.53;;;;;;;;;;5042126;28;20208;-66
2022/02/04 03:35:33;;;;;;;40.03;22.80;;;;;;;;;;5037738;28;20208;-65
2022/02/04 03:37:59;;;;;;;40.83;22.67;;;;;;;;;;5045785;28;20629;-66
2022/02/04 03:40:25;;;;;;;40.47;21.83;;;;;;;;;;5040436;28;20259;-66
2022/02/04 03:42:51;;;;;;;39.57;21.83;;;;;;;;;;5043791;28;20660;-66
2022/02/04 03:45:18;;;;;;;38.30;21.73;;;;;;;;;;5044057;28;20686;-67
2022/02/04 03:47:43;;;;;;;37.87;20.73;;;;;;;;;;5047797;28;20539;-66
2022/02/04 03:50:10;;;;;;;42.53;23.17;;;;;;;;;;5047660;28;20258;-66
2022/02/04 03:52:37;;;;;;;42.78;22.23;;;;;;;;;;5047110;28;20213;-65
2022/02/04 03:55:03;;;;;;;41.80;23.40;;;;;;;;;;5044441;28;20216;-66
2022/02/04 03:57:28;;;;;;;37.17;21.47;;;;;;;;;;5048030;28;20201;-65
2022/02/04 03:59:54;;;;;;;38.93;21.87;;;;;;;;;;5048276;28;20190;-66
2022/02/04 04:02:19;;;;;;;39.87;21.67;;;;;;;;;;5047939;28;20251;-65
2022/02/04 04:04:44;;;;;;;36.63;21.60;;;;;;;;;;5044125;28;20181;-66
2022/02/04 04:07:10;;;;;;;35.07;20.60;;;;;;;;;;5047953;28;20268;-66
2022/02/04 04:09:39;;;;;;;39.63;21.57;;;;;;;;;;5056334;28;20698;-66
2022/02/04 04:12:05;;;;;;;35.73;20.43;;;;;;;;;;5046957;28;20186;-66
2022/02/04 04:14:31;;;;;;;35.07;19.40;;;;;;;;;;5047242;28;20188;-66
2022/02/04 04:16:56;;;;;;;32.47;19.47;;;;;;;;;;5042956;28;20551;-66
2022/02/04 04:19:21;;;;;;;36.40;20.80;;;;;;;;;;5047412;28;20182;-66
2022/02/04 04:21:47;;;;;;;36.10;19.87;;;;;;;;;;5046110;28;20205;-67
2022/02/04 04:24:13;;;;;;;30.57;19.03;;;;;;;;;;5049664;28;20189;-66
2022/02/04 04:26:40;;;;;;;34.63;20.00;;;;;;;;;;5046016;28;20182;-66
2022/02/04 04:29:06;;;;;;;34.63;19.93;;;;;;;;;;5047223;28;20201;-67
2022/02/04 04:31:31;;;;;;;34.33;20.53;;;;;;;;;;5045668;28;20212;-66
2022/02/04 04:33:57;;;;;;;30.50;17.98;;;;;;;;;;5043957;28;20174;-66
2022/02/04 04:36:22;;;;;;;34.10;18.52;;;;;;;;;;5046386;28;20640;-66
2022/02/04 04:38:56;;;;;;;31.13;17.93;;;;;;;;;;5043316;28;20188;-66
2022/02/04 04:41:49;;;;;;;32.10;18.90;;;;;;;;;;5047032;28;20264;-66
2022/02/04 05:30:25;;;;;;;26.90;15.77;;;;;;;;;;5039313;28;20590;-67
2022/02/04 05:32:50;;;;;;;26.17;15.63;;;;;;;;;;5038356;28;20196;-67
2022/02/04 05:35:17;;;;;;;23.63;14.70;;;;;;;;;;5043037;28;20663;-67
2022/02/04 05:37:46;;;;;;;25.40;15.60;;;;;;;;;;5042099;28;20200;-67
2022/02/04 05:40:16;;;;;;;31.60;15.47;;;;;;;;;;5039774;28;20190;-67
2022/02/04 05:42:49;;;;;;;26.63;15.17;;;;;;;;;;5041656;28;20948;-65
2022/02/04 05:45:19;;;;;;;27.67;15.33;;;;;;;;;;5041146;28;20189;-66
2022/02/04 05:47:48;;;;;;;26.60;14.97;;;;;;;;;;5044332;28;20189;-66
2022/02/04 05:50:20;;;;;;;23.10;14.30;;;;;;;;;;5042567;28;20181;-66
2022/02/04 05:53:14;;;;;;;21.57;13.53;;;;;;;;;;5043733;28;20524;-67
2022/02/04 05:58:31;;;;;;;23.83;14.10;;;;;;;;;;5040181;28;20553;-66
2022/02/04 06:01:12;;;;;;;23.10;12.60;;;;;;;;;;5041499;28;20319;-66
2022/02/04 06:24:37;;;;;;;19.03;12.03;;;;;;;;;;5041026;28;20192;-67
2022/02/04 06:27:03;;;;;;;20.05;12.25;;;;;;;;;;5050922;28;20201;-67
2022/02/04 06:29:29;;;;;;;21.00;11.73;;;;;;;;;;5046210;28;20196;-67
2022/02/04 06:31:55;;;;;;;21.13;12.60;;;;;;;;;;5044183;28;20205;-67
2022/02/04 06:34:20;;;;;;;19.60;11.70;;;;;;;;;;5042082;28;20204;-66
2022/02/04 06:36:45;;;;;;;18.23;12.00;;;;;;;;;;5039346;28;20191;-67
2022/02/04 06:39:11;;;;;;;18.73;12.00;;;;;;;;;;5043898;28;20185;-67
2022/02/04 06:41:36;;;;;;;16.87;11.53;;;;;;;;;;5043388;28;20215;-67
2022/02/04 06:44:02;;;;;;;20.93;11.53;;;;;;;;;;5047755;28;20300;-66
2022/02/04 06:46:29;;;;;;;17.13;11.70;;;;;;;;;;5042568;28;20188;-66
2022/02/04 06:48:54;;;;;;;20.93;11.40;;;;;;;;;;5044918;28;20178;-66
2022/02/04 06:51:20;;;;;;;19.77;10.93;;;;;;;;;;5043013;28;20753;-66
2022/02/04 06:53:45;;;;;;;17.80;10.75;;;;;;;;;;5047647;28;20585;-66
2022/02/04 06:56:11;;;;;;;18.47;10.80;;;;;;;;;;5043850;28;20196;-67
2022/02/04 06:58:36;;;;;;;16.73;9.70;;;;;;;;;;5048624;28;20239;-67
2022/02/04 07:01:01;;;;;;;17.67;9.52;;;;;;;;;;5042858;28;20328;-67
2022/02/04 07:03:27;;;;;;;18.13;10.13;;;;;;;;;;5051296;28;20278;-67
2022/02/04 07:05:56;;;;;;;16.85;10.05;;;;;;;;;;5041393;28;20185;-67
2022/02/04 07:08:58;;;;;;;13.85;8.68;;;;;;;;;;5045225;28;20205;-67
2022/02/04 07:12:05;;;;;;;15.95;9.63;;;;;;;;;;5046093;28;20180;-67
2022/02/04 07:14:35;;;;;;;18.05;9.48;;;;;;;;;;5041081;28;20239;-67
2022/02/04 07:19:48;;;;;;;14.07;8.25;;;;;;;;;;5045938;28;20284;-67
2022/02/04 07:22:18;;;;;;;11.97;7.40;;;;;;;;;;5053175;28;20204;-67
2022/02/04 07:24:46;;;;;;;11.15;7.93;;;;;;;;;;5052902;28;20657;-67
2022/02/04 07:27:12;;;;;;;11.98;7.65;;;;;;;;;;5045856;28;20199;-67
2022/02/04 07:29:38;;;;;;;16.17;7.55;;;;;;;;;;5044569;28;20186;-67
2022/02/04 07:32:14;;;;;;;12.20;7.38;;;;;;;;;;5046130;28;20197;-68
2022/02/04 07:42:42;;;;;;;11.60;7.10;;;;;;;;;;5043303;28;20271;-68
2022/02/04 07:45:07;;;;;;;11.90;6.80;;;;;;;;;;5043408;28;20735;-67
2022/02/04 07:47:33;;;;;;;11.27;6.53;;;;;;;;;;5044537;28;20751;-67
2022/02/04 07:49:58;;;;;;;10.10;6.60;;;;;;;;;;5043977;28;20185;-67
2022/02/04 07:52:23;;;;;;;10.68;6.43;;;;;;;;;;5045429;28;20195;-67
2022/02/04 07:54:49;;;;;;;10.02;5.75;;;;;;;;;;5046078;28;20196;-66
2022/02/04 07:57:14;;;;;;;10.15;6.22;;;;;;;;;;5043074;28;20634;-67
2022/02/04 07:59:39;;;;;;;9.23;6.00;;;;;;;;;;5040266;28;20197;-67
2022/02/04 08:02:05;;;;;;;10.32;6.05;;;;;;;;;;5045949;28;20232;-67
2022/02/04 08:04:33;;;;;;;9.10;5.57;;;;;;;;;;5046612;28;20268;-67
2022/02/04 08:07:07;;;;;;;8.93;5.43;;;;;;;;;;5043746;28;20208;-67
2022/02/04 08:10:01;;;;;;;9.35;5.82;;;;;;;;;;5047802;28;20194;-66
2022/02/04 08:12:44;;;;;;;8.52;5.32;;;;;;;;;;5046231;28;20196;-67
2022/02/04 08:15:43;;;;;;;8.40;5.43;;;;;;;;;;5047276;28;20180;-67
2022/02/04 08:18:27;;;;;;;8.70;5.38;;;;;;;;;;5041398;28;20186;-68
2022/02/04 08:23:59;;;;;;;8.25;5.55;;;;;;;;;;5044453;28;20244;-68
2022/02/04 08:26:43;;;;;;;8.60;5.55;;;;;;;;;;5049419;28;20279;-67
2022/02/04 08:32:06;;;;;;;7.75;4.93;;;;;;;;;;5041571;28;20220;-67
2022/02/04 08:48:46;;;;;;;9.60;5.30;;;;;;;;;;5048873;28;20204;-68
2022/02/04 08:56:25;;;;;;;7.00;4.90;;;;;;;;;;5043763;28;20511;-66
2022/02/04 08:58:56;;;;;;;7.53;4.13;;;;;;;;;;5050295;28;20347;-67
2022/02/04 09:01:32;;;;;;;6.50;4.63;;;;;;;;;;5043852;28;20274;-67
2022/02/04 09:04:11;;;;;;;5.43;4.33;;;;;;;;;;5046000;28;20271;-66
2022/02/04 09:06:41;;;;;;;4.97;3.80;;;;;;;;;;5044990;28;20180;-66
2022/02/04 09:09:13;;;;;;;5.77;4.30;;;;;;;;;;5048992;28;20347;-66
2022/02/04 09:11:43;;;;;;;6.10;3.90;;;;;;;;;;5049795;28;20208;-70
2022/02/04 09:19:23;;;;;;;6.57;4.23;;;;;;;;;;5040314;28;20732;-66
2022/02/04 09:22:06;;;;;;;5.80;3.67;;;;;;;;;;5041910;28;20189;-67
2022/02/04 09:24:31;;;;;;;7.03;4.20;;;;;;;;;;5046347;28;20646;-66
2022/02/04 09:26:56;;;;;;;4.93;4.27;;;;;;;;;;5051148;28;20197;-67
2022/02/04 09:29:22;;;;;;;5.57;3.83;;;;;;;;;;5045525;28;20201;-67
2022/02/04 09:31:47;;;;;;;6.17;4.67;;;;;;;;;;5041182;28;20217;-67
2022/02/04 09:34:13;;;;;;;6.20;4.50;;;;;;;;;;5061541;28;20204;-67
2022/02/04 09:36:38;;;;;;;6.20;4.47;;;;;;;;;;5041165;28;20200;-67
2022/02/04 09:39:08;;;;;;;6.67;4.97;;;;;;;;;;5045083;28;20216;-67
2022/02/04 09:41:36;;;;;;;5.77;4.77;;;;;;;;;;5044343;28;20195;-66
2022/02/04 09:44:01;;;;;;;7.87;5.23;;;;;;;;;;5052522;28;20200;-67
2022/02/04 09:46:29;;;;;;;6.77;5.53;;;;;;;;;;5045896;28;20271;-67
2022/02/04 09:48:57;;;;;;;7.87;5.63;;;;;;;;;;5050245;28;20205;-67
2022/02/04 09:51:32;;;;;;;7.93;4.97;;;;;;;;;;5044681;28;20211;-66
2022/02/04 10:05:56;;;;;;;8.00;5.70;;;;;;;;;;5044453;28;20266;-67
2022/02/04 10:08:22;;;;;;;8.83;6.50;;;;;;;;;;5047717;28;20204;-67
2022/02/04 10:17:14;;;;;;;8.88;5.68;;;;;;;;;;5047975;28;20203;-67
2022/02/04 10:22:06;;;;;;;8.45;5.38;;;;;;;;;;5042709;28;20275;-66
2022/02/04 10:24:33;;;;;;;7.10;5.65;;;;;;;;;;5045709;28;20189;-69
2022/02/04 10:27:12;;;;;;;6.95;5.15;;;;;;;;;;5042767;28;20196;-67
2022/02/04 10:29:40;;;;;;;7.47;5.28;;;;;;;;;;5045287;28;20576;-66
2022/02/04 10:32:06;;;;;;;8.30;4.63;;;;;;;;;;5038409;28;20205;-67
2022/02/04 10:34:33;;;;;;;6.50;4.90;;;;;;;;;;5052777;28;20193;-66
2022/02/04 10:37:02;;;;;;;6.60;4.82;;;;;;;;;;5043358;28;20189;-66
2022/02/04 10:42:30;;;;;;;5.38;4.30;;;;;;;;;;5044434;28;20181;-67
2022/02/04 10:47:32;;;;;;;5.43;4.13;;;;;;;;;;5035119;28;20268;-68
2022/02/04 10:50:13;;;;;;;5.78;4.20;;;;;;;;;;5042232;28;20213;-67
2022/02/04 10:53:04;;;;;;;5.30;4.00;;;;;;;;;;5047422;28;20177;-67
2022/02/04 11:00:53;;;;;;;6.30;4.00;;;;;;;;;;5049957;28;20216;-67
2022/02/04 11:03:15;;;;;;;6.03;4.25;;;;;;;;;;5049434;28;20673;-66
2022/02/04 11:05:58;;;;;;;6.53;4.30;;;;;;;;;;5050641;28;20450;-66
2022/02/04 11:08:48;;;;;;;4.47;4.07;;;;;;;;;;5045542;28;20217;-66
2022/02/04 11:11:39;;;;;;;5.13;4.47;;;;;;;;;;5048134;28;20580;-66
2022/02/04 11:36:09;;;;;;;4.18;3.25;;;;;;;;;;5048659;28;20189;-67
2022/02/04 11:55:10;;;;;;;3.28;2.47;;;;;;;;;;5044576;28;20208;-68
2022/02/04 11:57:38;;;;;;;3.38;2.35;;;;;;;;;;5050401;28;20706;-67
2022/02/04 12:00:15;;;;;;;2.70;2.30;;;;;;;;;;5042926;28;20204;-67
2022/02/04 12:02:41;;;;;;;3.25;2.58;;;;;;;;;;5043981;28;20240;-66
2022/02/04 12:05:11;;;;;;;3.25;2.70;;;;;;;;;;5047546;28;20598;-66
2022/02/04 12:07:59;;;;;;;3.65;2.63;;;;;;;;;;5047031;28;20640;-67
2022/02/04 12:10:30;;;;;;;3.53;2.45;;;;;;;;;;5048752;28;20173;-67
2022/02/04 12:12:56;;;;;;;3.35;2.80;;;;;;;;;;5045886;28;20593;-67
2022/02/04 12:15:27;;;;;;;2.50;2.25;;;;;;;;;;5056611;28;20196;-67
2022/02/04 12:17:52;;;;;;;2.95;2.60;;;;;;;;;;5046075;28;20189;-67
2022/02/04 12:20:44;;;;;;;3.08;2.40;;;;;;;;;;5054001;28;20512;-67
2022/02/04 12:23:10;;;;;;;3.05;2.75;;;;;;;;;;5048130;28;20212;-67
2022/02/04 12:26:04;;;;;;;3.35;2.80;;;;;;;;;;5046768;28;20201;-67
2022/02/04 12:28:41;;;;;;;4.03;2.83;;;;;;;;;;5055471;28;20185;-68
2022/02/04 12:31:17;;;;;;;3.40;2.92;;;;;;;;;;5047250;28;20286;-66
2022/02/04 12:33:52;;;;;;;4.18;2.53;;;;;;;;;;5054812;28;20540;-66
2022/02/04 12:36:26;;;;;;;2.88;2.50;;;;;;;;;;5047667;28;20576;-67
2022/02/04 12:38:54;;;;;;;4.50;3.05;;;;;;;;;;5046965;28;20193;-67
2022/02/04 12:41:20;;;;;;;3.58;2.90;;;;;;;;;;5046723;28;20216;-67
2022/02/04 12:43:48;;;;;;;5.93;2.75;;;;;;;;;;5046746;28;20555;-67
2022/02/04 12:46:17;;;;;;;4.30;2.80;;;;;;;;;;5045037;28;20637;-67
2022/02/04 12:49:14;;;;;;;4.88;2.42;;;;;;;;;;5047230;28;20227;-67
2022/02/04 12:52:10;;;;;;;2.95;2.50;;;;;;;;;;5058042;28;20192;-67
2022/02/04 12:54:40;;;;;;;3.85;2.60;;;;;;;;;;5046848;28;20189;-67
2022/02/04 13:00:03;;;;;;;3.05;2.60;;;;;;;;;;5045518;28;20189;-67
2022/02/04 13:08:20;;;;;;;3.38;2.20;;;;;;;;;;5043094;28;20742;-67
2022/02/04 13:10:43;;;;;;;3.40;2.53;;;;;;;;;;5050374;28;20220;-67
2022/02/04 13:13:13;;;;;;;3.15;2.33;;;;;;;;;;5041852;28;20204;-67
2022/02/04 13:15:41;;;;;;;3.85;2.47;;;;;;;;;;5053652;28;20186;-67
2022/02/04 13:18:07;;;;;;;3.70;2.33;;;;;;;;;;5040651;28;20208;-68
2022/02/04 13:20:33;;;;;;;4.47;2.42;;;;;;;;;;5042452;28;20284;-67
2022/02/04 13:23:08;;;;;;;5.03;2.47;;;;;;;;;;5041017;28;20200;-66
2022/02/04 13:25:36;;;;;;;3.53;2.50;;;;;;;;;;5038717;28;20606;-67
2022/02/04 13:28:21;;;;;;;4.70;2.47;;;;;;;;;;5044550;28;20410;-67
2022/02/04 13:31:03;;;;;;;3.28;2.20;;;;;;;;;;5042694;28;20664;-67
2022/02/04 13:33:31;;;;;;;2.72;1.90;;;;;;;;;;5042072;28;20186;-68
2022/02/04 13:36:40;;;;;;;4.07;2.35;;;;;;;;;;5041535;28;20714;-67
2022/02/04 13:44:39;;;;;;;4.57;2.47;;;;;;;;;;5044165;28;20248;-66
2022/02/04 13:47:35;;;;;;;4.03;2.75;;;;;;;;;;5041382;28;20548;-67
2022/02/04 13:57:57;;;;;;;3.28;2.60;;;;;;;;;;5047772;28;20255;-67
2022/02/04 14:00:38;;;;;;;3.33;2.55;;;;;;;;;;5052981;28;20235;-67
2022/02/04 14:03:12;;;;;;;3.88;2.58;;;;;;;;;;5043953;28;20303;-67
2022/02/04 14:05:46;;;;;;;3.67;2.38;;;;;;;;;;5055725;28;20172;-68
2022/02/04 14:08:17;;;;;;;3.75;2.70;;;;;;;;;;5059689;28;20769;-67
2022/02/04 14:10:57;;;;;;;3.83;2.50;;;;;;;;;;5052020;28;20537;-68
2022/02/04 14:13:24;;;;;;;3.40;2.47;;;;;;;;;;5045348;28;20197;-66
2022/02/04 14:15:54;;;;;;;4.10;2.75;;;;;;;;;;5045559;28;20223;-69
2022/02/04 14:18:20;;;;;;;5.50;2.60;;;;;;;;;;5046847;28;20196;-67
2022/02/04 14:20:45;;;;;;;4.28;2.80;;;;;;;;;;5054090;28;20185;-67
2022/02/04 14:23:12;;;;;;;3.83;2.63;;;;;;;;;;5046551;28;20205;-67
2022/02/04 14:28:27;;;;;;;3.08;2.63;;;;;;;;;;5051702;28;20217;-69
2022/02/04 14:31:01;;;;;;;6.75;3.50;;;;;;;;;;5041722;28;20235;-73
2022/02/04 14:34:35;;;;;;;4.65;3.15;;;;;;;;;;5060932;28;20173;-72
2022/02/04 14:36:28;;;;;;;5.47;3.00;;;;;;;;;;5047307;28;20197;-73
2022/02/04 14:50:11;;;;;;;5.07;4.00;;;;;;;;;;5045230;28;20283;-74
2022/02/04 15:00:54;;;;;;;5.63;4.18;;;;;;;;;;5062092;28;20593;-74
2022/02/04 15:03:23;;;;;;;6.63;4.20;;;;;;;;;;5043486;28;20204;-74
2022/02/04 15:06:01;;;;;;;6.50;3.97;;;;;;;;;;5059333;28;20181;-74
2022/02/04 15:08:28;;;;;;;7.33;4.00;;;;;;;;;;5048621;28;20551;-74
2022/02/04 15:10:54;;;;;;;6.20;4.27;;;;;;;;;;5056812;28;20192;-73
2022/02/04 15:13:20;;;;;;;6.70;4.37;;;;;;;;;;5046481;28;20648;-74
2022/02/04 15:15:45;;;;;;;8.03;3.33;;;;;;;;;;5056756;28;20187;-74
2022/02/04 15:18:11;;;;;;;4.13;1.10;;;;;;;;;;5045413;28;20196;-78
2022/02/04 15:20:38;;;;;;;1.63;0.80;;;;;;;;;;5038414;28;20192;-74
2022/02/04 15:23:04;;;;;;;3.57;0.63;;;;;;;;;;5042799;28;20351;-75
2022/02/04 15:25:29;;;;;;;0.60;0.40;;;;;;;;;;5045949;28;20184;-74
2022/02/04 15:28:14;;;;;;;3.07;0.33;;;;;;;;;;5039651;28;20182;-74
2022/02/04 15:30:43;;;;;;;1.37;0.40;;;;;;;;;;5041064;28;20224;-74
2022/02/04 15:33:09;;;;;;;0.93;0.40;;;;;;;;;;5045388;28;20176;-75
2022/02/04 15:35:35;;;;;;;0.27;0.20;;;;;;;;;;5039321;28;20186;-75
2022/02/04 15:38:01;;;;;;;0.27;0.23;;;;;;;;;;5036015;28;20280;-75
2022/02/04 15:40:26;;;;;;;1.67;0.10;;;;;;;;;;5045954;28;20276;-74
2022/02/04 15:42:57;;;;;;;0.30;0.10;;;;;;;;;;5055171;28;20213;-76
2022/02/04 15:53:18;;;;;;;1.43;0.30;;;;;;;;;;5052897;28;20185;-74
2022/02/04 15:58:42;;;;;;;0.73;0.20;;;;;;;;;;5045709;28;20204;-71
2022/02/04 16:03:42;;;;;;;0.43;0.20;;;;;;;;;;5050475;28;20259;-75
2022/02/04 16:06:12;;;;;;;0.50;0.30;;;;;;;;;;5058584;28;20280;-72
2022/02/04 16:08:37;;;;;;;1.13;0.50;;;;;;;;;;5052163;28;20197;-73
2022/02/04 16:14:02;;;;;;;2.30;0.50;;;;;;;;;;5053305;28;20190;-70
2022/02/04 16:16:33;;;;;;;0.90;0.60;;;;;;;;;;5053683;28;20194;-70
2022/02/04 16:19:15;;;;;;;0.50;0.40;;;;;;;;;;5060241;28;20429;-70
2022/02/04 16:24:51;;;;;;;0.70;0.40;;;;;;;;;;5055875;28;20231;-68
2022/02/04 16:29:48;;;;;;;0.63;0.63;;;;;;;;;;5048117;28;20745;-70
2022/02/04 16:32:13;;;;;;;0.93;0.73;;;;;;;;;;5047236;28;20247;-69
2022/02/04 16:34:40;;;;;;;1.23;1.10;;;;;;;;;;5045143;28;20666;-69
2022/02/04 16:37:16;;;;;;;1.97;1.20;;;;;;;;;;5049676;28;20266;-69
2022/02/04 16:39:43;;;;;;;2.13;1.00;;;;;;;;;;5048003;28;20648;-68
2022/02/04 16:42:14;;;;;;;2.40;1.17;;;;;;;;;;5045428;28;20198;-68
2022/02/04 16:44:39;;;;;;;1.20;0.90;;;;;;;;;;5040739;28;20205;-68
2022/02/04 16:47:05;;;;;;;1.10;0.70;;;;;;;;;;5055836;28;20189;-69
2022/02/04 16:49:31;;;;;;;2.67;1.20;;;;;;;;;;5042908;28;20717;-68
2022/02/04 16:51:57;;;;;;;1.63;1.00;;;;;;;;;;5048008;28;20210;-68
2022/02/04 16:54:24;;;;;;;1.17;1.00;;;;;;;;;;5044339;28;20239;-68
2022/02/04 16:56:51;;;;;;;1.83;0.70;;;;;;;;;;5044170;28;20300;-68
2022/02/04 16:59:16;;;;;;;1.57;1.10;;;;;;;;;;5042023;28;20203;-68
2022/02/04 17:01:42;;;;;;;0.87;0.73;;;;;;;;;;5044762;28;20307;-68
2022/02/04 17:04:07;;;;;;;1.20;0.77;;;;;;;;;;5042988;28;20213;-68
2022/02/04 17:06:38;;;;;;;2.00;0.80;;;;;;;;;;5051458;28;20608;-69
2022/02/04 17:09:20;;;;;;;0.60;0.60;;;;;;;;;;5047828;28;20181;-68
2022/02/04 17:11:48;;;;;;;1.60;0.80;;;;;;;;;;5052386;28;20209;-68
2022/02/04 17:14:15;;;;;;;2.40;0.90;;;;;;;;;;5047069;28;20178;-68
2022/02/04 17:16:44;;;;;;;2.00;1.00;;;;;;;;;;5055559;28;20533;-68
2022/02/04 17:19:14;;;;;;;2.37;1.10;;;;;;;;;;5046016;28;20212;-68
2022/02/04 17:21:40;;;;;;;3.03;0.80;;;;;;;;;;5047356;28;20189;-69
2022/02/04 17:24:11;;;;;;;2.63;0.60;;;;;;;;;;5044467;28;20211;-69
2022/02/04 17:26:36;;;;;;;3.90;0.77;;;;;;;;;;5043174;28;20277;-69
2022/02/04 17:29:02;;;;;;;1.10;0.50;;;;;;;;;;5045946;28;20308;-69
2022/02/04 17:31:27;;;;;;;2.87;1.20;;;;;;;;;;5039963;28;20284;-69
2022/02/04 17:33:53;;;;;;;2.43;0.80;;;;;;;;;;5043771;28;20189;-69
2022/02/04 17:36:18;;;;;;;4.53;0.77;;;;;;;;;;5043270;28;20193;-68
2022/02/04 17:38:43;;;;;;;2.73;0.60;;;;;;;;;;5048803;28;20224;-68
2022/02/04 17:41:10;;;;;;;4.40;0.63;;;;;;;;;;5046561;28;20185;-68
2022/02/04 17:43:41;;;;;;;4.67;1.30;;;;;;;;;;5047367;28;20292;-68
2022/02/04 17:46:06;;;;;;;3.47;1.10;;;;;;;;;;5043590;28;20185;-68
2022/02/04 17:48:44;;;;;;;2.47;1.43;;;;;;;;;;5047881;28;20185;-68
2022/02/04 17:53:49;;;;;;;7.83;1.67;;;;;;;;;;5051473;28;20190;-68
2022/02/04 17:56:38;;;;;;;2.70;1.10;;;;;;;;;;5041488;28;20182;-68
2022/02/04 18:07:09;;;;;;;3.37;0.93;;;;;;;;;;5053956;28;20726;-68
2022/02/04 18:09:40;;;;;;;5.33;1.00;;;;;;;;;;5045990;28;20558;-68
2022/02/04 18:12:06;;;;;;;0.50;0.50;;;;;;;;;;5053369;28;20233;-68
2022/02/04 18:14:32;;;;;;;2.17;0.60;;;;;;;;;;5044514;28;20269;-67
2022/02/04 18:16:57;;;;;;;5.20;1.53;;;;;;;;;;5047318;28;20225;-68
2022/02/04 18:19:23;;;;;;;5.83;1.60;;;;;;;;;;5045826;28;20192;-68
2022/02/04 18:21:48;;;;;;;4.60;1.30;;;;;;;;;;5044379;28;20794;-67
2022/02/04 18:24:13;;;;;;;3.63;1.50;;;;;;;;;;5048196;28;20437;-67
2022/02/04 18:26:39;;;;;;;3.80;1.60;;;;;;;;;;5047076;28;20303;-68
2022/02/04 18:29:05;;;;;;;5.60;2.20;;;;;;;;;;5045880;28;20256;-67
2022/02/04 18:31:32;;;;;;;6.57;3.13;;;;;;;;;;5048257;28;20216;-67
2022/02/04 18:34:01;;;;;;;5.17;2.47;;;;;;;;;;5055959;28;20187;-68
2022/02/04 18:36:28;;;;;;;5.13;2.30;;;;;;;;;;5049398;28;20197;-68
2022/02/04 18:39:07;;;;;;;5.13;1.40;;;;;;;;;;5046877;28;20213;-67
2022/02/04 18:42:03;;;;;;;3.33;1.30;;;;;;;;;;5042451;28;20193;-67
2022/02/04 18:44:26;;;;;;;5.93;1.70;;;;;;;;;;5050948;28;20216;-68
2022/02/04 18:46:57;;;;;;;5.93;1.33;;;;;;;;;;5048275;28;20420;-68
2022/02/04 18:49:28;;;;;;;5.10;1.73;;;;;;;;;;5045114;28;20189;-67
2022/02/04 18:59:19;;;;;;;9.00;2.13;;;;;;;;;;5046348;28;20185;-68
2022/02/04 19:01:46;;;;;;;3.37;0.97;;;;;;;;;;5048499;28;20228;-67
2022/02/04 19:04:16;;;;;;;5.20;1.33;;;;;;;;;;5043902;28;20206;-67
2022/02/04 19:06:43;;;;;;;8.27;1.80;;;;;;;;;;5053749;28;20193;-68
2022/02/04 19:09:09;;;;;;;7.37;1.63;;;;;;;;;;5044968;28;20590;-67
2022/02/04 19:11:57;;;;;;;5.83;1.50;;;;;;;;;;5048873;28;20193;-67
2022/02/04 19:14:41;;;;;;;6.77;2.00;;;;;;;;;;5045074;28;21397;-68
2022/02/04 19:17:12;;;;;;;12.67;2.30;;;;;;;;;;5050147;28;20652;-67
2022/02/04 19:19:51;;;;;;;5.00;2.10;;;;;;;;;;5057642;28;20225;-68
2022/02/04 19:22:30;;;;;;;6.47;3.30;;;;;;;;;;5045811;28;20211;-67
2022/02/04 19:24:59;;;;;;;6.03;2.80;;;;;;;;;;5056242;28;20181;-67
2022/02/04 19:27:24;;;;;;;9.73;4.23;;;;;;;;;;5050826;28;20192;-68
2022/02/04 19:29:50;;;;;;;12.13;3.40;;;;;;;;;;5059681;28;20193;-68
2022/02/04 19:32:17;;;;;;;8.17;3.37;;;;;;;;;;5047296;28;20182;-67
2022/02/04 19:34:42;;;;;;;10.27;2.47;;;;;;;;;;5057656;28;20597;-67
2022/02/04 19:37:08;;;;;;;7.80;2.67;;;;;;;;;;5039502;28;20550;-67
2022/02/04 19:39:34;;;;;;;6.77;2.63;;;;;;;;;;5047630;28;20661;-68
2022/02/04 19:44:50;;;;;;;12.90;2.97;;;;;;;;;;5055099;28;20282;-67
2022/02/04 19:47:20;;;;;;;10.00;3.27;;;;;;;;;;5055434;28;20223;-67
2022/02/04 19:50:05;;;;;;;13.00;4.13;;;;;;;;;;5048506;28;20189;-68
2022/02/04 19:55:39;;;;;;;12.37;3.60;;;;;;;;;;5046524;28;20200;-68
2022/02/04 20:25:04;;;;;;;15.10;4.53;;;;;;;;;;5047379;28;20280;-71
2022/02/04 20:27:31;;;;;;;13.17;4.53;;;;;;;;;;5046135;28;20938;-70
2022/02/04 20:29:58;;;;;;;14.73;4.50;;;;;;;;;;5042620;28;20550;-70
2022/02/04 20:32:24;;;;;;;16.10;4.30;;;;;;;;;;5042460;28;20621;-69
2022/02/04 20:34:50;;;;;;;10.47;4.47;;;;;;;;;;5047917;28;20247;-70
2022/02/04 20:37:16;;;;;;;10.73;4.03;;;;;;;;;;5048233;28;20243;-70
2022/02/04 20:39:55;;;;;;;16.17;5.10;;;;;;;;;;4344975;28;10000747;-69
2022/02/04 20:42:20;;;;;;;14.27;4.37;;;;;;;;;;5043018;28;20177;-69
2022/02/04 20:44:50;;;;;;;14.57;4.80;;;;;;;;;;5040597;28;20594;-69
2022/02/04 20:47:16;;;;;;;18.67;4.90;;;;;;;;;;5047226;28;20214;-68
2022/02/04 20:49:42;;;;;;;14.07;4.50;;;;;;;;;;5036566;28;20197;-69
2022/02/04 20:52:12;;;;;;;10.53;4.33;;;;;;;;;;5047243;28;20188;-69
2022/02/04 20:54:37;;;;;;;11.87;4.77;;;;;;;;;;5042973;28;20185;-70
2022/02/04 20:57:03;;;;;;;17.10;4.40;;;;;;;;;;5047903;28;20192;-70
2022/02/04 20:59:28;;;;;;;15.97;4.27;;;;;;;;;;5045172;28;20663;-70
2022/02/04 21:01:54;;;;;;;15.47;4.13;;;;;;;;;;5043973;28;20263;-69
2022/02/04 21:04:21;;;;;;;13.23;4.60;;;;;;;;;;5042530;28;20288;-69
2022/02/04 21:06:53;;;;;;;11.27;4.27;;;;;;;;;;5048157;28;20994;-68
2022/02/04 21:17:19;;;;;;;18.07;4.73;;;;;;;;;;5064160;28;20597;-69
2022/02/04 21:19:46;;;;;;;14.63;5.10;;;;;;;;;;5042247;28;20183;-68
2022/02/04 21:22:11;;;;;;;14.40;5.17;;;;;;;;;;5033617;28;20243;-68
2022/02/04 21:24:36;;;;;;;16.37;4.67;;;;;;;;;;5039596;28;20214;-69
2022/02/04 21:27:02;;;;;;;18.67;5.43;;;;;;;;;;5039819;28;20712;-69
2022/02/04 21:29:27;;;;;;;13.00;4.70;;;;;;;;;;5039677;28;20193;-69
2022/02/04 21:31:53;;;;;;;16.80;4.53;;;;;;;;;;5035702;28;20684;-68
2022/02/04 21:37:04;;;;;;;12.07;4.83;;;;;;;;;;5037546;28;20186;-68